createdAt,value
2024-04-12T00:00:50.581Z,102865.91
2024-04-12T00:04:54.347Z,102861.41
2024-04-12T00:08:56.250Z,102870.38
2024-04-12T00:12:58.253Z,102867.13
2024-04-12T00:17:00.644Z,102865.59
2024-04-12T00:21:03.489Z,102863.16
2024-04-12T00:25:06.137Z,102857.81
2024-04-12T00:29:09.414Z,102858.00
2024-04-12T00:33:11.679Z,102851.53
2024-04-12T00:37:17.306Z,102855.91
2024-04-12T00:41:24.082Z,102853.81
2024-04-12T00:45:40.785Z,102854.25
2024-04-12T00:49:52.947Z,102852.59
2024-04-12T00:54:00.014Z,102865.03
2024-04-12T00:58:02.209Z,102861.25
2024-04-12T01:02:09.863Z,102859.31
2024-04-12T01:06:12.004Z,102862.31
2024-04-12T01:10:13.812Z,102857.69
2024-04-12T01:14:15.798Z,102851.56
2024-04-12T01:18:18.295Z,102846.25
2024-04-12T01:22:20.285Z,102846.47
2024-04-12T01:26:24.814Z,102840.13
2024-04-12T01:30:26.946Z,102840.91
2024-04-12T01:34:31.251Z,102841.94
2024-04-12T01:38:38.215Z,102837.31
2024-04-12T01:42:44.250Z,102835.25
2024-04-12T01:46:49.373Z,102827.06
2024-04-12T01:50:52.652Z,102842.09
2024-04-12T01:55:06.813Z,102839.25
2024-04-12T01:59:08.780Z,102844.25
2024-04-12T02:03:11.998Z,102848.81
2024-04-12T02:07:15.533Z,102844.09
2024-04-12T02:11:24.324Z,102851.13
2024-04-12T02:15:29.519Z,102841.56
2024-04-12T02:19:31.892Z,102834.59
2024-04-12T02:23:34.747Z,102839.06
2024-04-12T02:27:36.868Z,102832.97
2024-04-12T02:31:38.832Z,102835.97
2024-04-12T02:35:42.793Z,102836.13
2024-04-12T02:39:44.616Z,102842.41
2024-04-12T02:43:53.941Z,102833.75
2024-04-12T02:47:56.344Z,102837.25
2024-04-12T02:52:01.096Z,102841.72
2024-04-12T02:56:13.581Z,102844.84
2024-04-12T03:00:24.481Z,102834.78
2024-04-12T03:04:26.557Z,102834.22
2024-04-12T03:08:33.706Z,102821.91
2024-04-12T03:12:37.331Z,102813.06
2024-04-12T03:16:41.898Z,102809.00
2024-04-12T03:20:44.020Z,102801.59
2024-04-12T03:24:45.965Z,102802.19
2024-04-12T03:28:47.827Z,102792.88
2024-04-12T03:32:49.739Z,102803.22
2024-04-12T03:36:51.546Z,102798.06
2024-04-12T03:40:59.877Z,102791.53
2024-04-12T03:45:13.994Z,102774.41
2024-04-12T03:49:16.088Z,102783.09
2024-04-12T03:53:17.880Z,102792.44
2024-04-12T03:57:20.127Z,102782.66
2024-04-12T04:01:22.141Z,102780.91
2024-04-12T04:05:27.457Z,102786.09
2024-04-12T04:09:29.542Z,102765.56
2024-04-12T04:13:31.411Z,102758.34
2024-04-12T04:17:34.361Z,102749.22
2024-04-12T04:21:39.333Z,102743.25
2024-04-12T04:25:41.235Z,102746.38
2024-04-12T04:29:46.055Z,102752.00
2024-04-12T04:33:48.022Z,102753.47
2024-04-12T04:37:53.621Z,102750.28
2024-04-12T04:41:55.569Z,102748.53
2024-04-12T04:46:00.492Z,102738.38
2024-04-12T04:50:02.651Z,102745.41
2024-04-12T04:54:04.771Z,102737.44
2024-04-12T04:58:09.978Z,102741.50
2024-04-12T05:02:11.841Z,102744.78
2024-04-12T05:06:13.938Z,102737.88
2024-04-12T05:10:16.872Z,102739.72
2024-04-12T05:14:37.396Z,102727.97
2024-04-12T05:18:39.306Z,102735.97
2024-04-12T05:22:43.268Z,102740.56
2024-04-12T05:26:46.541Z,102748.38
2024-04-12T05:30:52.326Z,102749.47
2024-04-12T05:34:54.834Z,102755.00
2024-04-12T05:38:59.533Z,102746.94
2024-04-12T05:43:01.984Z,102747.81
2024-04-12T05:47:08.458Z,102752.91
2024-04-12T05:51:10.833Z,102753.16
2024-04-12T05:55:15.661Z,102754.03
2024-04-12T05:59:17.706Z,102746.75
2024-04-12T06:03:19.552Z,102745.84
2024-04-12T06:07:21.500Z,102748.34
2024-04-12T06:11:23.968Z,102748.63
2024-04-12T06:15:29.433Z,102739.97
2024-04-12T06:19:38.229Z,102737.91
2024-04-12T06:23:40.069Z,102722.59
2024-04-12T06:27:43.960Z,102723.03
2024-04-12T06:31:47.039Z,102708.16
2024-04-12T06:35:50.697Z,102710.88
2024-04-12T06:39:56.998Z,102704.56
2024-04-12T06:43:58.997Z,102709.25
2024-04-12T06:48:04.952Z,102703.16
2024-04-12T06:52:13.405Z,102697.81
2024-04-12T06:56:17.933Z,102701.50
2024-04-12T07:00:21.765Z,102694.81
2024-04-12T07:04:23.820Z,102696.16
2024-04-12T07:08:28.443Z,102694.19
2024-04-12T07:12:32.734Z,102695.41
2024-04-12T07:16:37.000Z,102696.50
2024-04-12T07:20:41.584Z,102700.53
2024-04-12T07:24:43.494Z,102686.47
2024-04-12T07:28:45.534Z,102685.81
2024-04-12T07:32:47.718Z,102685.47
2024-04-12T07:36:49.525Z,102697.34
2024-04-12T07:40:54.155Z,102697.03
2024-04-12T07:44:57.763Z,102698.41
2024-04-12T07:49:00.371Z,102694.44
2024-04-12T07:53:11.658Z,102689.88
2024-04-12T07:57:16.287Z,102683.56
2024-04-12T08:01:19.191Z,102675.44
2024-04-12T08:05:26.299Z,102670.00
2024-04-12T08:09:46.151Z,102668.44
2024-04-12T08:13:51.725Z,102678.19
2024-04-12T08:17:56.969Z,102653.63
2024-04-12T08:21:58.841Z,102668.28
2024-04-12T08:26:11.187Z,102656.44
2024-04-12T08:30:21.388Z,102664.03
2024-04-12T08:34:25.847Z,102660.25
2024-04-12T08:38:27.785Z,102650.09
2024-04-12T08:42:33.809Z,102648.84
2024-04-12T08:46:36.970Z,102643.69
2024-04-12T08:50:41.055Z,102649.47
2024-04-12T08:54:44.387Z,102650.28
2024-04-12T08:58:53.553Z,102648.72
2024-04-12T09:03:05.778Z,102656.25
2024-04-12T09:07:13.430Z,102641.22
2024-04-12T09:11:15.506Z,102634.75
2024-04-12T09:15:28.681Z,102643.94
2024-04-12T09:19:30.813Z,102621.94
2024-04-12T09:23:35.889Z,102615.47
2024-04-12T09:27:45.230Z,102618.47
2024-04-12T09:32:06.678Z,102615.84
2024-04-12T09:36:15.452Z,102627.78
2024-04-12T09:40:25.949Z,102602.78
2024-04-12T09:44:28.916Z,102600.16
2024-04-12T09:48:50.354Z,102587.69
2024-04-12T09:53:10.946Z,102594.31
2024-04-12T09:57:32.598Z,102591.09
2024-04-12T10:01:56.507Z,102586.38
2024-04-12T10:06:17.596Z,102588.84
2024-04-12T10:10:39.360Z,102591.84
2024-04-12T10:15:00.529Z,102602.31
2024-04-12T10:19:29.070Z,102597.34
2024-04-12T10:23:49.746Z,102594.31
2024-04-12T10:28:11.923Z,102586.84
2024-04-12T10:32:33.183Z,102576.22
2024-04-12T10:36:54.154Z,102573.94
2024-04-12T10:40:59.412Z,102568.47
2024-04-12T10:45:03.289Z,102565.88
2024-04-12T10:49:06.860Z,102561.88
2024-04-12T10:53:08.747Z,102560.66
2024-04-12T10:57:13.442Z,102567.88
2024-04-12T11:01:17.800Z,102565.34
2024-04-12T11:05:19.917Z,102568.88
2024-04-12T11:09:31.474Z,102554.56
2024-04-12T11:13:37.077Z,102543.09
2024-04-12T11:18:00.226Z,102527.75
2024-04-12T11:22:20.599Z,102548.28
2024-04-12T11:26:41.562Z,102532.41
2024-04-12T11:31:03.047Z,102535.72
2024-04-12T11:35:06.542Z,102545.50
2024-04-12T11:39:26.661Z,102551.38
2024-04-12T11:43:28.572Z,102563.47
2024-04-12T11:47:30.557Z,102546.59
2024-04-12T11:51:34.840Z,102551.00
2024-04-12T11:55:36.832Z,102545.38
2024-04-12T11:59:38.822Z,102531.47
2024-04-12T12:03:40.813Z,102534.84
2024-04-12T12:07:46.170Z,102523.94
2024-04-12T12:11:50.796Z,102515.94
2024-04-12T12:15:53.197Z,102511.03
2024-04-12T12:19:55.185Z,102496.56
2024-04-12T12:23:57.695Z,102499.09
2024-04-12T12:27:59.455Z,102492.66
2024-04-12T12:32:02.548Z,102480.38
2024-04-12T12:36:07.280Z,102478.53
2024-04-12T12:40:14.689Z,102483.59
2024-04-12T12:44:24.075Z,102479.19
2024-04-12T12:48:29.470Z,102471.88
2024-04-12T12:52:33.608Z,102483.13
2024-04-12T12:56:36.353Z,102478.00
2024-04-12T13:00:41.210Z,102474.72
2024-04-12T13:04:49.938Z,102469.16
2024-04-12T13:08:51.846Z,102474.41
2024-04-12T13:12:53.807Z,102473.25
2024-04-12T13:16:55.997Z,102464.91
2024-04-12T13:20:58.625Z,102458.16
2024-04-12T13:25:00.510Z,102462.03
2024-04-12T13:29:02.420Z,102465.66
2024-04-12T13:33:04.565Z,102465.72
2024-04-12T13:37:09.514Z,102461.16
2024-04-12T13:41:11.978Z,102453.69
2024-04-12T13:45:32.479Z,102451.91
2024-04-12T13:49:53.010Z,102444.56
2024-04-12T13:53:54.951Z,102434.09
2024-04-12T13:57:56.900Z,102430.75
2024-04-12T14:02:00.419Z,102425.91
2024-04-12T14:06:02.669Z,102431.34
2024-04-12T14:10:07.717Z,102433.47
2024-04-12T14:14:10.749Z,102418.53
2024-04-12T14:18:12.671Z,102410.44
2024-04-12T14:22:14.456Z,102425.84
2024-04-12T14:26:16.502Z,102417.97
2024-04-12T14:30:22.291Z,102404.97
2024-04-12T14:34:25.906Z,102410.06
2024-04-12T14:38:30.508Z,102412.97
2024-04-12T14:42:33.679Z,102410.44
2024-04-12T14:46:39.728Z,102410.84
2024-04-12T14:50:42.818Z,102409.06
2024-04-12T14:54:44.825Z,102402.94
2024-04-12T14:58:46.545Z,102395.59
2024-04-12T15:02:48.585Z,102391.06
2024-04-12T15:07:09.912Z,102390.09
2024-04-12T15:11:30.048Z,102381.19
2024-04-12T15:15:51.166Z,102393.25
2024-04-12T15:20:11.820Z,102399.78
2024-04-12T15:24:32.242Z,102386.25
2024-04-12T15:28:52.647Z,102387.34
2024-04-12T15:33:13.514Z,102380.25
2024-04-12T15:37:34.437Z,102371.25
2024-04-12T15:41:54.841Z,102373.53
2024-04-12T15:46:15.378Z,102366.69
2024-04-12T15:50:26.210Z,102354.72
2024-04-12T15:54:28.043Z,102358.53
2024-04-12T15:58:48.995Z,102354.28
2024-04-12T16:03:12.573Z,102348.69
2024-04-12T16:07:33.687Z,102346.28
2024-04-12T16:11:35.506Z,102349.97
2024-04-12T16:15:37.339Z,102338.50
2024-04-12T16:19:41.239Z,102333.94
2024-04-12T16:23:42.992Z,102333.81
2024-04-12T16:27:44.958Z,102323.38
2024-04-12T16:31:47.107Z,102329.75
2024-04-12T16:35:49.111Z,102331.91
2024-04-12T16:39:52.310Z,102328.13
2024-04-12T16:43:57.249Z,102326.28
2024-04-12T16:48:01.672Z,102319.44
2024-04-12T16:52:04.004Z,102327.31
2024-04-12T16:56:05.995Z,102314.50
2024-04-12T17:00:08.398Z,102318.97
2024-04-12T17:04:11.316Z,102310.97
2024-04-12T17:08:13.714Z,102323.78
2024-04-12T17:12:15.494Z,102319.31
2024-04-12T17:16:18.350Z,102313.41
2024-04-12T17:20:20.730Z,102305.53
2024-04-12T17:24:23.549Z,102314.28
2024-04-12T17:28:25.401Z,102317.03
2024-04-12T17:32:35.195Z,102323.75
2024-04-12T17:36:37.188Z,102309.66
2024-04-12T17:40:39.047Z,102322.56
2024-04-12T17:44:41.679Z,102328.50
2024-04-12T17:48:43.665Z,102332.91
2024-04-12T17:52:46.360Z,102333.41
2024-04-12T17:56:48.243Z,102327.94
2024-04-12T18:01:03.091Z,102337.69
2024-04-12T18:05:07.103Z,102331.91
2024-04-12T18:09:10.412Z,102333.28
2024-04-12T18:13:12.245Z,102333.41
2024-04-12T18:17:14.367Z,102330.13
2024-04-12T18:21:17.540Z,102325.66
2024-04-12T18:25:19.925Z,102329.94
2024-04-12T18:29:21.898Z,102333.16
2024-04-12T18:33:24.138Z,102340.38
2024-04-12T18:37:44.634Z,102342.34
2024-04-12T18:42:05.636Z,102338.25
2024-04-12T18:46:07.838Z,102339.78
2024-04-12T18:50:11.002Z,102340.84
2024-04-12T18:54:12.802Z,102345.66
2024-04-12T18:58:15.294Z,102346.41
2024-04-12T19:02:17.179Z,102342.56
2024-04-12T19:06:19.687Z,102341.25
2024-04-12T19:10:21.637Z,102351.47
2024-04-12T19:14:25.455Z,102351.06
2024-04-12T19:18:30.451Z,102355.09
2024-04-12T19:22:32.500Z,102352.34
2024-04-12T19:26:37.387Z,102341.56
2024-04-12T19:30:44.350Z,102345.09
2024-04-12T19:34:46.500Z,102337.22
2024-04-12T19:38:48.328Z,102338.06
2024-04-12T19:42:50.099Z,102341.63
2024-04-12T19:46:51.893Z,102336.13
2024-04-12T19:50:55.884Z,102347.75
2024-04-12T19:54:58.494Z,102353.03
2024-04-12T19:59:00.396Z,102339.88
2024-04-12T20:03:03.033Z,102341.25
2024-04-12T20:07:05.582Z,102336.78
2024-04-12T20:11:08.299Z,102336.09
2024-04-12T20:15:14.640Z,102335.38
2024-04-12T20:19:16.834Z,102328.97
2024-04-12T20:23:18.644Z,102334.41
2024-04-12T20:27:20.793Z,102335.09
2024-04-12T20:31:37.503Z,102334.22
2024-04-12T20:35:49.000Z,102331.66
2024-04-12T20:39:50.899Z,102333.34
2024-04-12T20:43:52.625Z,102331.88
2024-04-12T20:47:54.570Z,102334.66
2024-04-12T20:51:57.046Z,102335.81
2024-04-12T20:56:00.630Z,102326.03
2024-04-12T21:00:02.522Z,102325.75
2024-04-12T21:04:04.550Z,102328.88
2024-04-12T21:08:07.073Z,102320.91
2024-04-12T21:12:10.119Z,102315.09
2024-04-12T21:16:12.017Z,102313.53
2024-04-12T21:20:16.494Z,102309.78
2024-04-12T21:24:18.518Z,102314.56
2024-04-12T21:28:20.947Z,102306.78
2024-04-12T21:32:23.558Z,102312.09
2024-04-12T21:36:26.534Z,102314.56
2024-04-12T21:40:28.457Z,102316.56
2024-04-12T21:44:31.093Z,102318.19
2024-04-12T21:48:33.357Z,102322.44
2024-04-12T21:52:35.110Z,102315.81
2024-04-12T21:56:36.777Z,102318.34
2024-04-12T22:00:39.725Z,102316.97
2024-04-12T22:04:41.721Z,102316.38
2024-04-12T22:08:44.457Z,102309.88
2024-04-12T22:12:46.400Z,102301.13
2024-04-12T22:16:48.194Z,102290.69
2024-04-12T22:21:02.350Z,102289.53
2024-04-12T22:25:06.049Z,102283.16
2024-04-12T22:29:07.979Z,102295.56
2024-04-12T22:33:10.014Z,102302.28
2024-04-12T22:37:13.981Z,102315.19
2024-04-12T22:41:15.881Z,102309.47
2024-04-12T22:45:17.632Z,102307.16
2024-04-12T22:49:20.738Z,102300.63
2024-04-12T22:53:22.740Z,102301.16
2024-04-12T22:57:24.661Z,102311.38
2024-04-12T23:01:29.551Z,102302.84
2024-04-12T23:05:33.554Z,102301.59
2024-04-12T23:09:35.747Z,102303.19
2024-04-12T23:13:38.633Z,102304.94
2024-04-12T23:17:40.900Z,102299.13
2024-04-12T23:21:42.808Z,102275.25
2024-04-12T23:25:44.559Z,102270.69
2024-04-12T23:29:46.488Z,102272.38
2024-04-12T23:33:49.288Z,102291.28
2024-04-12T23:37:51.165Z,102295.19
2024-04-12T23:41:52.930Z,102288.69
2024-04-12T23:45:54.758Z,102288.25
2024-04-12T23:49:59.328Z,102286.25
2024-04-12T23:54:03.448Z,102283.78
2024-04-12T23:58:05.896Z,102270.59
